sensor_id;sensor_type;location;lat;lon;timestamp;P1;durP1;ratioP1;P2;durP2;ratioP2
21183;SDS011;18176;49.502;11.754;2023-05-01T00:01:23;7.43;;;2.80;;
21183;SDS011;18176;49.502;11.754;2023-05-01T00:05:26;4.33;;;2.90;;
21183;SDS011;18176;49.502;11.754;2023-05-01T00:09:27;5.33;;;2.90;;
21183;SDS011;18176;49.502;11.754;2023-05-01T00:13:27;8.03;;;2.90;;
21183;SDS011;18176;49.502;11.754;2023-05-01T00:17:28;4.37;;;2.80;;
21183;SDS011;18176;49.502;11.754;2023-05-01T00:21:31;5.17;;;3.03;;
21183;SDS011;18176;49.502;11.754;2023-05-01T00:25:31;6.27;;;3.17;;
21183;SDS011;18176;49.502;11.754;2023-05-01T00:29:31;6.20;;;3.10;;
21183;SDS011;18176;49.502;11.754;2023-05-01T00:33:32;5.90;;;3.20;;
21183;SDS011;18176;49.502;11.754;2023-05-01T00:37:34;6.13;;;3.30;;
21183;SDS011;18176;49.502;11.754;2023-05-01T00:41:34;6.77;;;2.93;;
21183;SDS011;18176;49.502;11.754;2023-05-01T00:45:35;8.50;;;3.40;;
21183;SDS011;18176;49.502;11.754;2023-05-01T00:49:35;6.23;;;3.40;;
21183;SDS011;18176;49.502;11.754;2023-05-01T00:53:39;4.83;;;3.30;;
21183;SDS011;18176;49.502;11.754;2023-05-01T00:57:39;6.13;;;3.10;;
21183;SDS011;18176;49.502;11.754;2023-05-01T01:01:40;7.70;;;3.53;;
21183;SDS011;18176;49.502;11.754;2023-05-01T01:05:41;10.33;;;3.50;;
21183;SDS011;18176;49.502;11.754;2023-05-01T01:09:55;6.93;;;3.90;;
21183;SDS011;18176;49.502;11.754;2023-05-01T01:14:09;5.37;;;3.43;;
21183;SDS011;18176;49.502;11.754;2023-05-01T01:18:17;7.97;;;3.57;;
21183;SDS011;18176;49.502;11.754;2023-05-01T01:22:28;5.47;;;3.50;;
21183;SDS011;18176;49.502;11.754;2023-05-01T01:26:39;6.43;;;3.97;;
21183;SDS011;18176;49.502;11.754;2023-05-01T01:31:25;7.50;;;4.00;;
21183;SDS011;18176;49.502;11.754;2023-05-01T01:35:34;10.27;;;4.17;;
21183;SDS011;18176;49.502;11.754;2023-05-01T01:39:42;6.97;;;4.10;;
21183;SDS011;18176;49.502;11.754;2023-05-01T01:43:55;7.13;;;3.70;;
21183;SDS011;18176;49.502;11.754;2023-05-01T01:48:01;7.60;;;4.33;;
21183;SDS011;18176;49.502;11.754;2023-05-01T01:52:07;6.57;;;4.40;;
21183;SDS011;18176;49.502;11.754;2023-05-01T01:56:12;9.70;;;4.77;;
21183;SDS011;18176;49.502;11.754;2023-05-01T02:00:17;5.97;;;4.23;;
21183;SDS011;18176;49.502;11.754;2023-05-01T02:04:20;8.03;;;4.97;;
21183;SDS011;18176;49.502;11.754;2023-05-01T02:08:27;12.00;;;4.90;;
21183;SDS011;18176;49.502;11.754;2023-05-01T02:12:31;10.40;;;5.53;;
21183;SDS011;18176;49.502;11.754;2023-05-01T02:16:33;11.53;;;5.63;;
21183;SDS011;18176;49.502;11.754;2023-05-01T02:20:36;8.77;;;5.67;;
21183;SDS011;18176;49.502;11.754;2023-05-01T02:24:39;10.13;;;5.70;;
21183;SDS011;18176;49.502;11.754;2023-05-01T02:28:42;10.67;;;5.77;;
21183;SDS011;18176;49.502;11.754;2023-05-01T02:32:42;12.57;;;5.53;;
21183;SDS011;18176;49.502;11.754;2023-05-01T02:36:42;9.93;;;5.67;;
21183;SDS011;18176;49.502;11.754;2023-05-01T02:40:48;11.97;;;6.17;;
21183;SDS011;18176;49.502;11.754;2023-05-01T02:44:55;9.03;;;5.30;;
21183;SDS011;18176;49.502;11.754;2023-05-01T02:48:59;7.93;;;5.13;;
21183;SDS011;18176;49.502;11.754;2023-05-01T02:53:02;6.63;;;4.97;;
21183;SDS011;18176;49.502;11.754;2023-05-01T02:57:15;8.97;;;5.20;;
21183;SDS011;18176;49.502;11.754;2023-05-01T03:01:16;8.77;;;5.33;;
21183;SDS011;18176;49.502;11.754;2023-05-01T03:05:16;11.37;;;5.13;;
21183;SDS011;18176;49.502;11.754;2023-05-01T03:09:17;8.80;;;5.17;;
21183;SDS011;18176;49.502;11.754;2023-05-01T03:13:20;9.73;;;5.03;;
21183;SDS011;18176;49.502;11.754;2023-05-01T03:17:20;9.50;;;5.50;;
21183;SDS011;18176;49.502;11.754;2023-05-01T03:21:21;7.80;;;5.10;;
21183;SDS011;18176;49.502;11.754;2023-05-01T03:25:22;8.43;;;5.43;;
21183;SDS011;18176;49.502;11.754;2023-05-01T03:29:25;9.97;;;5.20;;
21183;SDS011;18176;49.502;11.754;2023-05-01T03:33:25;9.20;;;5.50;;
21183;SDS011;18176;49.502;11.754;2023-05-01T03:37:27;10.40;;;5.60;;
21183;SDS011;18176;49.502;11.754;2023-05-01T03:41:27;12.63;;;5.23;;
21183;SDS011;18176;49.502;11.754;2023-05-01T03:45:38;11.53;;;5.80;;
21183;SDS011;18176;49.502;11.754;2023-05-01T03:49:40;8.23;;;5.50;;
21183;SDS011;18176;49.502;11.754;2023-05-01T03:53:41;10.27;;;5.60;;
21183;SDS011;18176;49.502;11.754;2023-05-01T03:57:42;9.67;;;5.50;;
21183;SDS011;18176;49.502;11.754;2023-05-01T04:01:45;9.73;;;5.47;;
21183;SDS011;18176;49.502;11.754;2023-05-01T04:05:45;12.70;;;5.53;;
21183;SDS011;18176;49.502;11.754;2023-05-01T04:09:46;10.80;;;5.93;;
21183;SDS011;18176;49.502;11.754;2023-05-01T04:13:46;12.93;;;6.03;;
21183;SDS011;18176;49.502;11.754;2023-05-01T04:17:49;12.13;;;6.20;;
21183;SDS011;18176;49.502;11.754;2023-05-01T04:21:52;10.33;;;5.87;;
21183;SDS011;18176;49.502;11.754;2023-05-01T04:25:54;11.63;;;5.37;;
21183;SDS011;18176;49.502;11.754;2023-05-01T04:29:54;11.03;;;5.73;;
21183;SDS011;18176;49.502;11.754;2023-05-01T04:33:59;6.63;;;5.07;;
21183;SDS011;18176;49.502;11.754;2023-05-01T04:38:00;11.40;;;5.20;;
21183;SDS011;18176;49.502;11.754;2023-05-01T04:42:00;11.93;;;5.63;;
21183;SDS011;18176;49.502;11.754;2023-05-01T04:46:01;10.63;;;5.20;;
21183;SDS011;18176;49.502;11.754;2023-05-01T04:50:05;8.63;;;5.10;;
21183;SDS011;18176;49.502;11.754;2023-05-01T04:54:07;9.53;;;5.27;;
21183;SDS011;18176;49.502;11.754;2023-05-01T04:58:08;9.83;;;5.33;;
21183;SDS011;18176;49.502;11.754;2023-05-01T05:02:08;7.87;;;5.40;;
21183;SDS011;18176;49.502;11.754;2023-05-01T05:06:11;9.73;;;5.60;;
21183;SDS011;18176;49.502;11.754;2023-05-01T05:10:12;8.40;;;5.10;;
21183;SDS011;18176;49.502;11.754;2023-05-01T05:14:18;12.63;;;5.27;;
21183;SDS011;18176;49.502;11.754;2023-05-01T05:18:19;8.70;;;4.83;;
21183;SDS011;18176;49.502;11.754;2023-05-01T05:22:23;9.30;;;5.37;;
21183;SDS011;18176;49.502;11.754;2023-05-01T05:26:58;9.03;;;5.20;;
21183;SDS011;18176;49.502;11.754;2023-05-01T05:30:59;10.87;;;5.50;;
21183;SDS011;18176;49.502;11.754;2023-05-01T05:35:00;10.50;;;5.47;;
21183;SDS011;18176;49.502;11.754;2023-05-01T05:39:03;11.30;;;6.40;;
21183;SDS011;18176;49.502;11.754;2023-05-01T05:43:04;11.23;;;5.73;;
21183;SDS011;18176;49.502;11.754;2023-05-01T05:47:04;11.53;;;5.60;;
21183;SDS011;18176;49.502;11.754;2023-05-01T05:51:04;9.67;;;5.50;;
21183;SDS011;18176;49.502;11.754;2023-05-01T05:55:07;10.23;;;5.67;;
21183;SDS011;18176;49.502;11.754;2023-05-01T05:59:12;11.40;;;5.67;;
21183;SDS011;18176;49.502;11.754;2023-05-01T06:03:14;8.97;;;5.40;;
21183;SDS011;18176;49.502;11.754;2023-05-01T06:07:15;8.83;;;5.57;;
21183;SDS011;18176;49.502;11.754;2023-05-01T06:11:18;9.03;;;5.57;;
21183;SDS011;18176;49.502;11.754;2023-05-01T06:15:19;10.43;;;6.23;;
21183;SDS011;18176;49.502;11.754;2023-05-01T06:19:22;11.93;;;6.60;;
21183;SDS011;18176;49.502;11.754;2023-05-01T06:23:33;11.20;;;6.40;;
21183;SDS011;18176;49.502;11.754;2023-05-01T06:27:52;13.27;;;7.07;;
21183;SDS011;18176;49.502;11.754;2023-05-01T06:31:53;12.57;;;6.40;;
21183;SDS011;18176;49.502;11.754;2023-05-01T06:35:53;15.47;;;7.30;;
21183;SDS011;18176;49.502;11.754;2023-05-01T06:39:55;11.13;;;7.33;;
21183;SDS011;18176;49.502;11.754;2023-05-01T06:43:58;14.77;;;7.50;;
21183;SDS011;18176;49.502;11.754;2023-05-01T06:47:59;17.13;;;8.23;;
21183;SDS011;18176;49.502;11.754;2023-05-01T06:52:00;15.60;;;9.30;;
21183;SDS011;18176;49.502;11.754;2023-05-01T06:56:00;14.67;;;8.67;;
21183;SDS011;18176;49.502;11.754;2023-05-01T07:00:03;13.93;;;8.53;;
21183;SDS011;18176;49.502;11.754;2023-05-01T07:04:06;14.17;;;7.77;;
21183;SDS011;18176;49.502;11.754;2023-05-01T07:08:07;13.10;;;8.17;;
21183;SDS011;18176;49.502;11.754;2023-05-01T07:12:07;12.93;;;8.10;;
21183;SDS011;18176;49.502;11.754;2023-05-01T07:16:10;14.57;;;7.97;;
21183;SDS011;18176;49.502;11.754;2023-05-01T07:20:10;13.50;;;7.80;;
21183;SDS011;18176;49.502;11.754;2023-05-01T07:24:12;10.63;;;7.80;;
21183;SDS011;18176;49.502;11.754;2023-05-01T07:28:12;15.43;;;7.97;;
21183;SDS011;18176;49.502;11.754;2023-05-01T07:32:16;10.83;;;7.37;;
21183;SDS011;18176;49.502;11.754;2023-05-01T07:36:16;14.10;;;7.77;;
21183;SDS011;18176;49.502;11.754;2023-05-01T07:40:17;11.73;;;7.90;;
21183;SDS011;18176;49.502;11.754;2023-05-01T07:44:18;14.48;;;7.88;;
21183;SDS011;18176;49.502;11.754;2023-05-01T07:48:20;12.70;;;7.68;;
21183;SDS011;18176;49.502;11.754;2023-05-01T07:52:21;11.98;;;7.97;;
21183;SDS011;18176;49.502;11.754;2023-05-01T07:56:21;13.05;;;7.75;;
21183;SDS011;18176;49.502;11.754;2023-05-01T08:00:22;13.95;;;8.63;;
21183;SDS011;18176;49.502;11.754;2023-05-01T08:04:25;10.27;;;7.35;;
21183;SDS011;18176;49.502;11.754;2023-05-01T08:08:26;11.60;;;7.90;;
21183;SDS011;18176;49.502;11.754;2023-05-01T08:12:27;14.20;;;8.15;;
21183;SDS011;18176;49.502;11.754;2023-05-01T08:16:27;11.70;;;8.10;;
21183;SDS011;18176;49.502;11.754;2023-05-01T08:20:31;11.25;;;7.60;;
21183;SDS011;18176;49.502;11.754;2023-05-01T08:24:31;10.68;;;7.70;;
21183;SDS011;18176;49.502;11.754;2023-05-01T08:28:33;11.23;;;7.75;;
21183;SDS011;18176;49.502;11.754;2023-05-01T08:32:34;9.27;;;7.38;;
21183;SDS011;18176;49.502;11.754;2023-05-01T08:36:37;10.32;;;7.60;;
21183;SDS011;18176;49.502;11.754;2023-05-01T08:40:38;9.85;;;6.88;;
21183;SDS011;18176;49.502;11.754;2023-05-01T08:44:45;10.15;;;7.20;;
21183;SDS011;18176;49.502;11.754;2023-05-01T08:48:47;9.10;;;7.00;;
21183;SDS011;18176;49.502;11.754;2023-05-01T08:52:51;11.50;;;7.50;;
21183;SDS011;18176;49.502;11.754;2023-05-01T08:56:54;12.02;;;6.63;;
21183;SDS011;18176;49.502;11.754;2023-05-01T09:01:00;8.93;;;6.47;;
21183;SDS011;18176;49.502;11.754;2023-05-01T09:05:04;8.80;;;6.28;;
21183;SDS011;18176;49.502;11.754;2023-05-01T09:09:09;7.03;;;5.70;;
21183;SDS011;18176;49.502;11.754;2023-05-01T09:13:09;9.85;;;6.75;;
21183;SDS011;18176;49.502;11.754;2023-05-01T09:17:10;6.78;;;5.70;;
21183;SDS011;18176;49.502;11.754;2023-05-01T09:21:11;10.20;;;5.80;;
21183;SDS011;18176;49.502;11.754;2023-05-01T09:25:15;8.50;;;5.63;;
21183;SDS011;18176;49.502;11.754;2023-05-01T09:33:36;8.45;;;5.68;;
21183;SDS011;18176;49.502;11.754;2023-05-01T09:37:52;6.80;;;5.05;;
21183;SDS011;18176;49.502;11.754;2023-05-01T09:41:56;5.60;;;4.22;;
21183;SDS011;18176;49.502;11.754;2023-05-01T09:45:58;9.27;;;4.38;;
21183;SDS011;18176;49.502;11.754;2023-05-01T09:50:05;5.50;;;4.07;;
21183;SDS011;18176;49.502;11.754;2023-05-01T09:54:16;7.85;;;4.15;;
21183;SDS011;18176;49.502;11.754;2023-05-01T09:58:27;6.85;;;4.43;;
21183;SDS011;18176;49.502;11.754;2023-05-01T10:02:27;5.53;;;4.22;;
21183;SDS011;18176;49.502;11.754;2023-05-01T10:06:28;6.95;;;4.20;;
21183;SDS011;18176;49.502;11.754;2023-05-01T10:10:29;6.72;;;4.18;;
21183;SDS011;18176;49.502;11.754;2023-05-01T10:14:32;7.45;;;4.57;;
21183;SDS011;18176;49.502;11.754;2023-05-01T10:18:36;6.55;;;4.60;;
21183;SDS011;18176;49.502;11.754;2023-05-01T10:22:38;7.57;;;5.10;;
21183;SDS011;18176;49.502;11.754;2023-05-01T10:26:40;8.82;;;5.03;;
21183;SDS011;18176;49.502;11.754;2023-05-01T10:30:44;6.72;;;4.90;;
21183;SDS011;18176;49.502;11.754;2023-05-01T10:34:46;8.55;;;5.20;;
21183;SDS011;18176;49.502;11.754;2023-05-01T10:38:51;8.07;;;5.07;;
21183;SDS011;18176;49.502;11.754;2023-05-01T10:51:58;7.90;;;5.18;;
21183;SDS011;18176;49.502;11.754;2023-05-01T10:56:00;5.60;;;4.80;;
21183;SDS011;18176;49.502;11.754;2023-05-01T11:00:11;7.20;;;4.95;;
21183;SDS011;18176;49.502;11.754;2023-05-01T11:08:49;7.50;;;5.50;;
21183;SDS011;18176;49.502;11.754;2023-05-01T11:12:50;9.95;;;5.28;;
21183;SDS011;18176;49.502;11.754;2023-05-01T11:16:52;7.20;;;5.38;;
21183;SDS011;18176;49.502;11.754;2023-05-01T11:20:55;8.40;;;5.20;;
21183;SDS011;18176;49.502;11.754;2023-05-01T11:24:55;7.07;;;5.40;;
21183;SDS011;18176;49.502;11.754;2023-05-01T11:28:57;9.07;;;5.40;;
21183;SDS011;18176;49.502;11.754;2023-05-01T11:33:00;7.05;;;5.22;;
21183;SDS011;18176;49.502;11.754;2023-05-01T11:37:04;8.80;;;5.47;;
21183;SDS011;18176;49.502;11.754;2023-05-01T11:41:05;8.60;;;5.45;;
21183;SDS011;18176;49.502;11.754;2023-05-01T11:45:06;7.18;;;5.47;;
21183;SDS011;18176;49.502;11.754;2023-05-01T11:49:09;8.07;;;5.10;;
21183;SDS011;18176;49.502;11.754;2023-05-01T11:53:13;6.57;;;5.07;;
21183;SDS011;18176;49.502;11.754;2023-05-01T11:57:14;7.25;;;5.15;;
21183;SDS011;18176;49.502;11.754;2023-05-01T12:01:16;7.15;;;5.30;;
21183;SDS011;18176;49.502;11.754;2023-05-01T12:05:17;9.38;;;5.38;;
21183;SDS011;18176;49.502;11.754;2023-05-01T12:09:21;7.50;;;5.65;;
21183;SDS011;18176;49.502;11.754;2023-05-01T12:13:25;11.75;;;6.70;;
21183;SDS011;18176;49.502;11.754;2023-05-01T12:17:25;8.32;;;5.70;;
21183;SDS011;18176;49.502;11.754;2023-05-01T12:21:26;9.20;;;5.47;;
21183;SDS011;18176;49.502;11.754;2023-05-01T12:25:31;7.85;;;5.40;;
21183;SDS011;18176;49.502;11.754;2023-05-01T12:29:38;7.32;;;5.50;;
21183;SDS011;18176;49.502;11.754;2023-05-01T12:33:40;6.75;;;5.53;;
21183;SDS011;18176;49.502;11.754;2023-05-01T12:37:53;8.50;;;5.75;;
21183;SDS011;18176;49.502;11.754;2023-05-01T12:41:58;6.90;;;5.55;;
21183;SDS011;18176;49.502;11.754;2023-05-01T12:45:59;23.00;;;13.90;;
21183;SDS011;18176;49.502;11.754;2023-05-01T12:50:02;13.82;;;5.95;;
21183;SDS011;18176;49.502;11.754;2023-05-01T12:54:03;8.05;;;5.20;;
21183;SDS011;18176;49.502;11.754;2023-05-01T12:58:06;8.68;;;5.63;;
21183;SDS011;18176;49.502;11.754;2023-05-01T13:02:08;8.35;;;5.85;;
21183;SDS011;18176;49.502;11.754;2023-05-01T13:06:11;11.07;;;7.68;;
21183;SDS011;18176;49.502;11.754;2023-05-01T13:10:12;11.45;;;6.22;;
21183;SDS011;18176;49.502;11.754;2023-05-01T13:14:31;7.70;;;6.22;;
21183;SDS011;18176;49.502;11.754;2023-05-01T13:18:43;11.60;;;6.77;;
21183;SDS011;18176;49.502;11.754;2023-05-01T13:22:45;9.50;;;6.80;;
21183;SDS011;18176;49.502;11.754;2023-05-01T13:26:45;9.40;;;7.63;;
21183;SDS011;18176;49.502;11.754;2023-05-01T13:30:48;12.47;;;8.30;;
21183;SDS011;18176;49.502;11.754;2023-05-01T13:34:48;11.77;;;8.40;;
21183;SDS011;18176;49.502;11.754;2023-05-01T13:38:50;11.67;;;8.60;;
21183;SDS011;18176;49.502;11.754;2023-05-01T13:42:53;12.80;;;8.80;;
21183;SDS011;18176;49.502;11.754;2023-05-01T13:46:56;12.60;;;8.47;;
21183;SDS011;18176;49.502;11.754;2023-05-01T13:51:00;14.67;;;8.80;;
21183;SDS011;18176;49.502;11.754;2023-05-01T13:55:00;15.10;;;9.00;;
21183;SDS011;18176;49.502;11.754;2023-05-01T13:59:05;13.17;;;10.10;;
21183;SDS011;18176;49.502;11.754;2023-05-01T14:03:09;14.40;;;10.37;;
21183;SDS011;18176;49.502;11.754;2023-05-01T14:07:11;13.53;;;10.70;;
21183;SDS011;18176;49.502;11.754;2023-05-01T14:11:17;14.20;;;10.30;;
21183;SDS011;18176;49.502;11.754;2023-05-01T14:15:18;14.87;;;10.10;;
21183;SDS011;18176;49.502;11.754;2023-05-01T14:19:22;14.17;;;10.30;;
21183;SDS011;18176;49.502;11.754;2023-05-01T14:23:23;13.37;;;10.63;;
21183;SDS011;18176;49.502;11.754;2023-05-01T14:27:23;13.67;;;11.27;;
21183;SDS011;18176;49.502;11.754;2023-05-01T14:31:25;14.27;;;10.40;;
21183;SDS011;18176;49.502;11.754;2023-05-01T14:35:32;18.33;;;12.53;;
21183;SDS011;18176;49.502;11.754;2023-05-01T14:39:33;17.27;;;13.53;;
21183;SDS011;18176;49.502;11.754;2023-05-01T14:43:34;15.00;;;11.50;;
21183;SDS011;18176;49.502;11.754;2023-05-01T14:47:40;14.50;;;11.43;;
21183;SDS011;18176;49.502;11.754;2023-05-01T14:51:48;16.37;;;11.87;;
21183;SDS011;18176;49.502;11.754;2023-05-01T14:55:50;14.80;;;11.63;;
21183;SDS011;18176;49.502;11.754;2023-05-01T14:59:52;13.67;;;11.03;;
21183;SDS011;18176;49.502;11.754;2023-05-01T15:03:52;13.93;;;10.80;;
21183;SDS011;18176;49.502;11.754;2023-05-01T15:07:55;14.70;;;10.73;;
21183;SDS011;18176;49.502;11.754;2023-05-01T15:11:55;14.90;;;11.63;;
21183;SDS011;18176;49.502;11.754;2023-05-01T15:15:56;14.37;;;11.10;;
21183;SDS011;18176;49.502;11.754;2023-05-01T15:19:57;16.93;;;11.10;;
21183;SDS011;18176;49.502;11.754;2023-05-01T15:24:00;15.83;;;11.23;;
21183;SDS011;18176;49.502;11.754;2023-05-01T15:28:00;18.20;;;11.77;;
21183;SDS011;18176;49.502;11.754;2023-05-01T15:32:00;16.23;;;11.30;;
21183;SDS011;18176;49.502;11.754;2023-05-01T15:36:08;13.93;;;11.60;;
21183;SDS011;18176;49.502;11.754;2023-05-01T15:40:11;11.80;;;9.90;;
21183;SDS011;18176;49.502;11.754;2023-05-01T15:44:12;11.97;;;10.23;;
21183;SDS011;18176;49.502;11.754;2023-05-01T15:48:12;17.30;;;9.88;;
21183;SDS011;18176;49.502;11.754;2023-05-01T15:52:13;12.93;;;10.53;;
21183;SDS011;18176;49.502;11.754;2023-05-01T15:56:16;16.33;;;11.63;;
21183;SDS011;18176;49.502;11.754;2023-05-01T16:00:17;14.97;;;10.83;;
21183;SDS011;18176;49.502;11.754;2023-05-01T16:04:18;14.57;;;10.95;;
21183;SDS011;18176;49.502;11.754;2023-05-01T16:08:18;12.77;;;9.80;;
21183;SDS011;18176;49.502;11.754;2023-05-01T16:12:21;14.27;;;10.37;;
21183;SDS011;18176;49.502;11.754;2023-05-01T16:16:22;11.93;;;9.60;;
21183;SDS011;18176;49.502;11.754;2023-05-01T16:20:25;13.60;;;9.77;;
21183;SDS011;18176;49.502;11.754;2023-05-01T16:24:30;15.17;;;10.57;;
21183;SDS011;18176;49.502;11.754;2023-05-01T16:28:34;16.87;;;10.70;;
21183;SDS011;18176;49.502;11.754;2023-05-01T16:32:36;15.33;;;12.50;;
21183;SDS011;18176;49.502;11.754;2023-05-01T16:36:38;14.83;;;10.60;;
21183;SDS011;18176;49.502;11.754;2023-05-01T16:40:42;13.93;;;10.00;;
21183;SDS011;18176;49.502;11.754;2023-05-01T16:44:46;15.10;;;10.57;;
21183;SDS011;18176;49.502;11.754;2023-05-01T16:48:49;14.90;;;11.33;;
21183;SDS011;18176;49.502;11.754;2023-05-01T16:52:49;16.50;;;10.87;;
21183;SDS011;18176;49.502;11.754;2023-05-01T16:56:50;16.47;;;11.97;;
21183;SDS011;18176;49.502;11.754;2023-05-01T17:00:53;11.70;;;9.70;;
21183;SDS011;18176;49.502;11.754;2023-05-01T17:04:55;13.57;;;9.43;;
21183;SDS011;18176;49.502;11.754;2023-05-01T17:08:55;13.53;;;9.77;;
21183;SDS011;18176;49.502;11.754;2023-05-01T17:12:56;13.57;;;9.90;;
21183;SDS011;18176;49.502;11.754;2023-05-01T17:16:58;14.90;;;11.20;;
21183;SDS011;18176;49.502;11.754;2023-05-01T17:21:04;14.10;;;11.57;;
21183;SDS011;18176;49.502;11.754;2023-05-01T17:25:05;12.67;;;10.40;;
21183;SDS011;18176;49.502;11.754;2023-05-01T17:29:07;14.57;;;10.40;;
21183;SDS011;18176;49.502;11.754;2023-05-01T17:33:10;15.70;;;12.20;;
21183;SDS011;18176;49.502;11.754;2023-05-01T17:37:10;14.37;;;11.07;;
21183;SDS011;18176;49.502;11.754;2023-05-01T17:41:10;14.67;;;11.17;;
21183;SDS011;18176;49.502;11.754;2023-05-01T17:45:11;15.90;;;10.47;;
21183;SDS011;18176;49.502;11.754;2023-05-01T17:49:14;14.80;;;11.10;;
21183;SDS011;18176;49.502;11.754;2023-05-01T17:53:14;13.57;;;10.03;;
21183;SDS011;18176;49.502;11.754;2023-05-01T17:57:15;14.93;;;9.90;;
21183;SDS011;18176;49.502;11.754;2023-05-01T18:01:15;12.80;;;10.37;;
21183;SDS011;18176;49.502;11.754;2023-05-01T18:05:19;13.20;;;9.67;;
21183;SDS011;18176;49.502;11.754;2023-05-01T18:09:19;15.40;;;10.47;;
21183;SDS011;18176;49.502;11.754;2023-05-01T18:13:19;15.63;;;11.03;;
21183;SDS011;18176;49.502;11.754;2023-05-01T18:17:23;18.60;;;13.53;;
21183;SDS011;18176;49.502;11.754;2023-05-01T18:21:26;20.67;;;13.63;;
21183;SDS011;18176;49.502;11.754;2023-05-01T18:25:27;15.13;;;11.43;;
21183;SDS011;18176;49.502;11.754;2023-05-01T18:29:27;15.07;;;10.37;;
21183;SDS011;18176;49.502;11.754;2023-05-01T18:33:28;20.50;;;13.03;;
21183;SDS011;18176;49.502;11.754;2023-05-01T18:37:31;17.17;;;11.20;;
21183;SDS011;18176;49.502;11.754;2023-05-01T18:41:31;13.27;;;10.93;;
21183;SDS011;18176;49.502;11.754;2023-05-01T18:45:32;14.53;;;10.43;;
21183;SDS011;18176;49.502;11.754;2023-05-01T18:49:33;15.73;;;11.47;;
21183;SDS011;18176;49.502;11.754;2023-05-01T18:53:36;16.77;;;11.67;;
21183;SDS011;18176;49.502;11.754;2023-05-01T18:57:36;19.03;;;12.80;;
21183;SDS011;18176;49.502;11.754;2023-05-01T19:01:37;17.23;;;12.90;;
21183;SDS011;18176;49.502;11.754;2023-05-01T19:05:37;21.07;;;14.57;;
21183;SDS011;18176;49.502;11.754;2023-05-01T19:09:41;20.33;;;14.30;;
21183;SDS011;18176;49.502;11.754;2023-05-01T19:13:41;19.80;;;13.80;;
21183;SDS011;18176;49.502;11.754;2023-05-01T19:17:42;18.53;;;13.93;;
21183;SDS011;18176;49.502;11.754;2023-05-01T19:21:43;18.03;;;14.93;;
21183;SDS011;18176;49.502;11.754;2023-05-01T19:25:45;20.07;;;14.10;;
21183;SDS011;18176;49.502;11.754;2023-05-01T19:29:46;22.23;;;16.43;;
21183;SDS011;18176;49.502;11.754;2023-05-01T19:33:46;23.23;;;17.03;;
21183;SDS011;18176;49.502;11.754;2023-05-01T19:37:50;17.80;;;14.80;;
21183;SDS011;18176;49.502;11.754;2023-05-01T19:41:56;21.53;;;14.97;;
21183;SDS011;18176;49.502;11.754;2023-05-01T19:45:57;16.47;;;13.03;;
21183;SDS011;18176;49.502;11.754;2023-05-01T19:49:58;19.10;;;13.53;;
21183;SDS011;18176;49.502;11.754;2023-05-01T19:53:58;18.90;;;14.50;;
21183;SDS011;18176;49.502;11.754;2023-05-01T19:58:03;20.23;;;14.60;;
21183;SDS011;18176;49.502;11.754;2023-05-01T20:02:03;19.10;;;13.17;;
21183;SDS011;18176;49.502;11.754;2023-05-01T20:06:03;16.20;;;12.87;;
21183;SDS011;18176;49.502;11.754;2023-05-01T20:10:04;19.07;;;14.50;;
21183;SDS011;18176;49.502;11.754;2023-05-01T20:14:08;23.13;;;15.40;;
21183;SDS011;18176;49.502;11.754;2023-05-01T20:18:09;18.77;;;13.63;;
21183;SDS011;18176;49.502;11.754;2023-05-01T20:22:09;21.77;;;15.10;;
21183;SDS011;18176;49.502;11.754;2023-05-01T20:26:10;17.83;;;13.07;;
21183;SDS011;18176;49.502;11.754;2023-05-01T20:30:13;21.70;;;15.60;;
21183;SDS011;18176;49.502;11.754;2023-05-01T20:34:13;15.83;;;12.77;;
21183;SDS011;18176;49.502;11.754;2023-05-01T20:38:14;15.90;;;12.07;;
21183;SDS011;18176;49.502;11.754;2023-05-01T20:42:14;15.13;;;12.40;;
21183;SDS011;18176;49.502;11.754;2023-05-01T20:46:17;17.10;;;13.17;;
21183;SDS011;18176;49.502;11.754;2023-05-01T20:50:18;22.20;;;15.73;;
21183;SDS011;18176;49.502;11.754;2023-05-01T20:54:18;23.00;;;16.27;;
21183;SDS011;18176;49.502;11.754;2023-05-01T20:58:19;17.00;;;13.77;;
21183;SDS011;18176;49.502;11.754;2023-05-01T21:02:22;19.50;;;13.77;;
21183;SDS011;18176;49.502;11.754;2023-05-01T21:06:22;16.93;;;12.97;;
21183;SDS011;18176;49.502;11.754;2023-05-01T21:10:22;16.40;;;12.70;;
21183;SDS011;18176;49.502;11.754;2023-05-01T21:14:23;16.80;;;12.90;;
21183;SDS011;18176;49.502;11.754;2023-05-01T21:18:28;21.10;;;16.57;;
21183;SDS011;18176;49.502;11.754;2023-05-01T21:22:32;19.73;;;15.60;;
21183;SDS011;18176;49.502;11.754;2023-05-01T21:26:32;18.47;;;13.97;;
21183;SDS011;18176;49.502;11.754;2023-05-01T21:30:33;23.67;;;14.90;;
21183;SDS011;18176;49.502;11.754;2023-05-01T21:34:37;21.17;;;14.93;;
21183;SDS011;18176;49.502;11.754;2023-05-01T21:38:37;19.57;;;14.30;;
21183;SDS011;18176;49.502;11.754;2023-05-01T21:42:38;19.43;;;15.10;;
21183;SDS011;18176;49.502;11.754;2023-05-01T21:46:38;20.73;;;14.60;;
21183;SDS011;18176;49.502;11.754;2023-05-01T21:50:42;22.77;;;15.60;;
21183;SDS011;18176;49.502;11.754;2023-05-01T21:54:46;23.17;;;15.43;;
21183;SDS011;18176;49.502;11.754;2023-05-01T21:58:47;19.40;;;14.20;;
21183;SDS011;18176;49.502;11.754;2023-05-01T22:02:48;18.97;;;13.43;;
21183;SDS011;18176;49.502;11.754;2023-05-01T22:06:52;18.93;;;12.90;;
21183;SDS011;18176;49.502;11.754;2023-05-01T22:10:52;17.93;;;13.47;;
21183;SDS011;18176;49.502;11.754;2023-05-01T22:14:52;16.97;;;12.97;;
21183;SDS011;18176;49.502;11.754;2023-05-01T22:18:52;19.20;;;13.93;;
21183;SDS011;18176;49.502;11.754;2023-05-01T22:22:55;20.10;;;14.17;;
21183;SDS011;18176;49.502;11.754;2023-05-01T22:26:56;18.37;;;13.20;;
21183;SDS011;18176;49.502;11.754;2023-05-01T22:30:58;19.90;;;13.87;;
21183;SDS011;18176;49.502;11.754;2023-05-01T22:34:58;19.17;;;13.50;;
21183;SDS011;18176;49.502;11.754;2023-05-01T22:39:02;21.83;;;14.27;;
21183;SDS011;18176;49.502;11.754;2023-05-01T22:43:02;17.17;;;13.57;;
21183;SDS011;18176;49.502;11.754;2023-05-01T22:47:03;16.83;;;12.63;;
21183;SDS011;18176;49.502;11.754;2023-05-01T22:51:03;20.83;;;14.07;;
21183;SDS011;18176;49.502;11.754;2023-05-01T22:55:07;15.90;;;13.17;;
21183;SDS011;18176;49.502;11.754;2023-05-01T22:59:07;20.40;;;14.43;;
21183;SDS011;18176;49.502;11.754;2023-05-01T23:03:08;17.87;;;13.40;;
21183;SDS011;18176;49.502;11.754;2023-05-01T23:07:08;18.13;;;13.87;;
21183;SDS011;18176;49.502;11.754;2023-05-01T23:11:14;19.20;;;14.50;;
21183;SDS011;18176;49.502;11.754;2023-05-01T23:15:20;20.77;;;14.33;;
21183;SDS011;18176;49.502;11.754;2023-05-01T23:19:23;17.83;;;13.57;;
21183;SDS011;18176;49.502;11.754;2023-05-01T23:23:24;24.00;;;15.13;;
21183;SDS011;18176;49.502;11.754;2023-05-01T23:27:31;20.70;;;15.30;;
21183;SDS011;18176;49.502;11.754;2023-05-01T23:31:35;17.70;;;12.83;;
21183;SDS011;18176;49.502;11.754;2023-05-01T23:35:44;18.93;;;13.77;;
21183;SDS011;18176;49.502;11.754;2023-05-01T23:39:44;16.87;;;12.50;;
21183;SDS011;18176;49.502;11.754;2023-05-01T23:43:47;18.73;;;13.03;;
21183;SDS011;18176;49.502;11.754;2023-05-01T23:47:47;22.40;;;13.60;;
21183;SDS011;18176;49.502;11.754;2023-05-01T23:51:48;20.03;;;14.33;;
21183;SDS011;18176;49.502;11.754;2023-05-01T23:55:48;22.00;;;14.27;;